Time;durP1;ratioP1;P1;durP2;ratioP2;P2;SDS_P1;SDS_P2;PMS_P1;PMS_P2;Temp;Humidity;BMP_temperature;BMP_pressure;BME280_temperature;BME280_humidity;BME280_pressure;Samples;Min_cycle;Max_cycle;Signal;HPM_P1;HPM_P2
2021/09/08 00:00:47;;;;;;;21.48;9.68;;;;;;;;;;8193029;28;20468;-73
2021/09/08 00:04:53;;;;;;;16.08;8.63;;;;;;;;;;8168198;28;20480;-72
2021/09/08 00:08:58;;;;;;;13.93;8.43;;;;;;;;;;8161170;28;20385;-72
2021/09/08 00:13:02;;;;;;;15.50;8.37;;;;;;;;;;8160391;28;20347;-72
2021/09/08 00:17:07;;;;;;;15.02;8.00;;;;;;;;;;8160809;28;20759;-72
2021/09/08 00:21:12;;;;;;;19.05;8.32;;;;;;;;;;8161601;28;20450;-72
2021/09/08 00:25:17;;;;;;;19.08;8.88;;;;;;;;;;8143701;28;20412;-72
2021/09/08 00:29:23;;;;;;;13.85;7.93;;;;;;;;;;8145050;28;20491;-72
2021/09/08 00:33:29;;;;;;;21.35;9.32;;;;;;;;;;8160233;28;20373;-73
2021/09/08 00:37:39;;;;;;;15.27;7.95;;;;;;;;;;8143374;28;20381;-72
2021/09/08 00:41:46;;;;;;;13.38;7.18;;;;;;;;;;8161010;28;20543;-73
2021/09/08 00:45:55;;;;;;;16.55;7.75;;;;;;;;;;8161335;28;20464;-73
2021/09/08 00:50:01;;;;;;;15.25;7.47;;;;;;;;;;8160248;28;20374;-73
2021/09/08 00:54:12;;;;;;;13.98;7.95;;;;;;;;;;8143040;28;20490;-73
2021/09/08 00:58:18;;;;;;;15.80;7.40;;;;;;;;;;8162890;28;20465;-73
2021/09/08 01:02:25;;;;;;;17.83;8.23;;;;;;;;;;8144426;28;20054;-73
2021/09/08 01:06:31;;;;;;;13.32;7.15;;;;;;;;;;8162567;28;20364;-73
2021/09/08 01:10:39;;;;;;;12.15;7.40;;;;;;;;;;8158684;28;20358;-72
2021/09/08 01:14:46;;;;;;;15.05;7.70;;;;;;;;;;8161839;28;20366;-73
2021/09/08 01:18:52;;;;;;;12.38;7.68;;;;;;;;;;8159241;28;20339;-73
2021/09/08 01:22:57;;;;;;;18.10;7.80;;;;;;;;;;8161430;28;20346;-73
2021/09/08 01:27:03;;;;;;;16.83;8.00;;;;;;;;;;8166287;28;20500;-72
2021/09/08 01:31:08;;;;;;;11.80;6.82;;;;;;;;;;8166687;28;20054;-74
2021/09/08 01:35:15;;;;;;;11.07;6.18;;;;;;;;;;8165274;28;20046;-72
2021/09/08 01:39:20;;;;;;;15.50;6.93;;;;;;;;;;8165661;28;20373;-73
2021/09/08 01:43:27;;;;;;;12.40;6.00;;;;;;;;;;8147879;28;20351;-73
2021/09/08 01:47:32;;;;;;;15.15;7.30;;;;;;;;;;8167709;28;20331;-72
2021/09/08 01:51:37;;;;;;;13.98;6.72;;;;;;;;;;8146489;28;20519;-73
2021/09/08 01:55:43;;;;;;;15.23;5.97;;;;;;;;;;8165461;28;20046;-72
2021/09/08 01:59:48;;;;;;;13.10;6.60;;;;;;;;;;8147241;28;20504;-73
2021/09/08 02:03:54;;;;;;;10.90;6.30;;;;;;;;;;8163883;28;20458;-73
2021/09/08 02:07:59;;;;;;;12.18;7.00;;;;;;;;;;8165381;28;20365;-72
2021/09/08 02:12:05;;;;;;;15.38;6.53;;;;;;;;;;8146734;28;20355;-72
2021/09/08 02:16:11;;;;;;;12.18;6.68;;;;;;;;;;8116051;28;20455;-74
2021/09/08 02:20:16;;;;;;;14.35;6.53;;;;;;;;;;8132668;28;20157;-72
2021/09/08 02:24:21;;;;;;;16.60;6.32;;;;;;;;;;8131335;28;20034;-73
2021/09/08 02:28:26;;;;;;;14.27;6.90;;;;;;;;;;8132594;28;20500;-72
2021/09/08 02:32:31;;;;;;;11.45;5.88;;;;;;;;;;8132262;28;21108;-73
2021/09/08 02:36:36;;;;;;;13.70;6.25;;;;;;;;;;8129960;28;20458;-72
2021/09/08 02:40:41;;;;;;;11.23;5.97;;;;;;;;;;8132816;28;20039;-73
2021/09/08 02:44:46;;;;;;;12.70;6.10;;;;;;;;;;8129568;28;20347;-72
2021/09/08 02:48:52;;;;;;;14.18;6.05;;;;;;;;;;8134758;28;20058;-72
2021/09/08 02:52:57;;;;;;;15.27;6.55;;;;;;;;;;8147810;28;20050;-73
2021/09/08 02:57:03;;;;;;;12.65;6.25;;;;;;;;;;8131009;28;20369;-73
2021/09/08 03:01:11;;;;;;;14.98;6.90;;;;;;;;;;8130234;28;20342;-73
2021/09/08 03:05:17;;;;;;;17.73;7.63;;;;;;;;;;8130233;28;20489;-72
2021/09/08 03:09:22;;;;;;;15.88;8.18;;;;;;;;;;8149972;28;20462;-73
2021/09/08 03:13:28;;;;;;;21.30;8.85;;;;;;;;;;8162554;28;20161;-73
2021/09/08 03:17:33;;;;;;;20.67;9.02;;;;;;;;;;8165002;28;20479;-73
2021/09/08 03:21:38;;;;;;;17.75;8.57;;;;;;;;;;8161713;28;20066;-73
2021/09/08 03:25:44;;;;;;;21.65;10.02;;;;;;;;;;8162153;28;20494;-73
2021/09/08 03:29:49;;;;;;;28.85;9.85;;;;;;;;;;8161603;28;20373;-73
2021/09/08 03:33:54;;;;;;;17.42;9.13;;;;;;;;;;8145209;28;20366;-73
2021/09/08 03:38:00;;;;;;;26.58;9.35;;;;;;;;;;8162444;28;20496;-73
2021/09/08 03:42:05;;;;;;;21.92;9.30;;;;;;;;;;8144943;28;20046;-73
2021/09/08 03:46:10;;;;;;;19.05;8.73;;;;;;;;;;8161883;28;20335;-73
2021/09/08 03:50:16;;;;;;;15.00;7.25;;;;;;;;;;8160765;28;20077;-73
2021/09/08 03:54:22;;;;;;;14.18;7.78;;;;;;;;;;8162607;28;20373;-73
2021/09/08 03:58:27;;;;;;;16.33;7.82;;;;;;;;;;8144934;28;20493;-73
2021/09/08 04:02:32;;;;;;;12.20;6.95;;;;;;;;;;8161149;28;20462;-72
2021/09/08 04:06:40;;;;;;;12.55;7.13;;;;;;;;;;8161405;28;20482;-73
2021/09/08 04:10:53;;;;;;;16.33;5.93;;;;;;;;;;8127451;28;20458;-73
2021/09/08 04:14:58;;;;;;;10.95;5.78;;;;;;;;;;8129426;28;20057;-73
2021/09/08 04:19:04;;;;;;;12.48;6.28;;;;;;;;;;8129114;28;20073;-73
2021/09/08 04:23:09;;;;;;;13.60;6.75;;;;;;;;;;8129059;28;20481;-73
2021/09/08 04:27:15;;;;;;;14.88;6.88;;;;;;;;;;8129362;28;20459;-73
2021/09/08 04:31:20;;;;;;;19.95;6.07;;;;;;;;;;8128526;28;20502;-73
2021/09/08 04:35:25;;;;;;;19.20;5.82;;;;;;;;;;8128213;28;20070;-73
2021/09/08 04:39:31;;;;;;;12.80;5.60;;;;;;;;;;8127191;28;20102;-72
2021/09/08 04:43:36;;;;;;;15.57;5.47;;;;;;;;;;8128645;28;20504;-73
2021/09/08 04:47:41;;;;;;;13.35;6.07;;;;;;;;;;8128761;28;20474;-73
2021/09/08 04:51:46;;;;;;;16.55;5.65;;;;;;;;;;8128823;28;20463;-73
2021/09/08 04:55:51;;;;;;;14.10;5.90;;;;;;;;;;8128518;28;20051;-73
2021/09/08 04:59:56;;;;;;;16.70;6.45;;;;;;;;;;8129512;28;20062;-73
2021/09/08 05:04:03;;;;;;;10.70;5.90;;;;;;;;;;8132998;28;20454;-73
2021/09/08 05:08:08;;;;;;;14.43;5.72;;;;;;;;;;8136208;28;20457;-73
2021/09/08 05:12:13;;;;;;;21.13;6.03;;;;;;;;;;8161698;28;20360;-73
2021/09/08 05:16:18;;;;;;;13.07;6.55;;;;;;;;;;8165621;28;20468;-72
2021/09/08 05:20:23;;;;;;;10.68;5.35;;;;;;;;;;8166659;28;20046;-73
2021/09/08 05:24:29;;;;;;;10.73;5.90;;;;;;;;;;8166931;28;20485;-73
2021/09/08 05:28:34;;;;;;;13.90;5.97;;;;;;;;;;8131928;28;20056;-73
2021/09/08 05:32:39;;;;;;;9.95;5.97;;;;;;;;;;8165068;28;20465;-73
2021/09/08 05:36:47;;;;;;;17.25;5.72;;;;;;;;;;8166606;28;20050;-72
2021/09/08 05:40:52;;;;;;;16.48;6.07;;;;;;;;;;8168248;28;20486;-73
2021/09/08 05:44:57;;;;;;;14.25;6.20;;;;;;;;;;8166521;28;20054;-72
2021/09/08 05:49:02;;;;;;;9.88;5.53;;;;;;;;;;8163697;28;20054;-72
2021/09/08 05:53:08;;;;;;;9.63;5.88;;;;;;;;;;8148976;28;20054;-73
2021/09/08 05:57:13;;;;;;;11.93;6.05;;;;;;;;;;8164332;28;20334;-73
2021/09/08 06:01:18;;;;;;;9.43;5.80;;;;;;;;;;8165787;28;20484;-72
2021/09/08 06:05:24;;;;;;;12.25;6.07;;;;;;;;;;8165318;28;20404;-72
2021/09/08 06:09:30;;;;;;;12.18;6.22;;;;;;;;;;8163024;28;20499;-72
2021/09/08 06:13:35;;;;;;;13.57;6.07;;;;;;;;;;8163057;28;20390;-72
2021/09/08 06:17:41;;;;;;;14.65;6.05;;;;;;;;;;8163844;28;20369;-72
2021/09/08 06:21:46;;;;;;;12.43;6.55;;;;;;;;;;8162717;28;20481;-72
2021/09/08 06:25:51;;;;;;;13.98;6.55;;;;;;;;;;8163622;28;20454;-72
2021/09/08 06:29:57;;;;;;;17.35;7.78;;;;;;;;;;8163801;28;20335;-72
2021/09/08 06:34:02;;;;;;;12.93;6.53;;;;;;;;;;8147781;28;20446;-72
2021/09/08 06:38:07;;;;;;;28.92;13.15;;;;;;;;;;8147373;28;20462;-72
2021/09/08 06:42:12;;;;;;;26.70;13.48;;;;;;;;;;8163359;28;20477;-72
2021/09/08 06:46:20;;;;;;;20.00;9.95;;;;;;;;;;8164569;28;20462;-72
2021/09/08 06:50:25;;;;;;;14.75;7.43;;;;;;;;;;8164980;28;20473;-72
2021/09/08 06:54:34;;;;;;;11.50;6.28;;;;;;;;;;8146469;28;20051;-72
2021/09/08 06:58:38;;;;;;;14.07;5.70;;;;;;;;;;8165069;28;20454;-72
2021/09/08 07:02:43;;;;;;;13.13;5.50;;;;;;;;;;8164959;28;20046;-72
2021/09/08 07:06:49;;;;;;;15.32;6.63;;;;;;;;;;8148016;28;20376;-72
2021/09/08 07:10:54;;;;;;;11.02;5.90;;;;;;;;;;8165204;28;20382;-72
2021/09/08 07:15:00;;;;;;;10.85;6.03;;;;;;;;;;8166586;28;20365;-73
2021/09/08 07:19:05;;;;;;;13.50;6.20;;;;;;;;;;8166183;28;20489;-72
2021/09/08 07:23:10;;;;;;;9.70;5.22;;;;;;;;;;8166440;28;20387;-72
2021/09/08 07:27:15;;;;;;;12.57;5.95;;;;;;;;;;8164683;28;20473;-72
2021/09/08 07:31:21;;;;;;;9.73;5.40;;;;;;;;;;8132458;28;20497;-72
2021/09/08 07:35:26;;;;;;;10.20;5.95;;;;;;;;;;8164620;28;20481;-72
2021/09/08 07:39:31;;;;;;;9.77;5.40;;;;;;;;;;8161400;28;20474;-72
2021/09/08 07:43:37;;;;;;;12.88;5.72;;;;;;;;;;8129229;28;20362;-72
2021/09/08 07:47:42;;;;;;;11.55;5.10;;;;;;;;;;8128727;28;20474;-72
2021/09/08 07:51:47;;;;;;;12.10;5.40;;;;;;;;;;8130253;28;20038;-72
2021/09/08 07:55:53;;;;;;;9.10;5.40;;;;;;;;;;8166159;28;20050;-73
2021/09/08 07:59:58;;;;;;;13.77;6.28;;;;;;;;;;8164637;28;20050;-72
2021/09/08 08:04:03;;;;;;;14.82;6.05;;;;;;;;;;8162609;28;20409;-73
2021/09/08 08:08:09;;;;;;;10.77;5.55;;;;;;;;;;8163643;28;20046;-73
2021/09/08 08:12:14;;;;;;;10.10;5.20;;;;;;;;;;8164396;28;20465;-72
2021/09/08 08:16:19;;;;;;;7.25;4.57;;;;;;;;;;8144854;28;20600;-72
2021/09/08 08:20:25;;;;;;;6.97;4.57;;;;;;;;;;8160835;28;20085;-72
2021/09/08 08:24:30;;;;;;;9.63;4.95;;;;;;;;;;8160457;28;20496;-73
2021/09/08 08:28:35;;;;;;;11.23;5.43;;;;;;;;;;8160076;28;20473;-72
2021/09/08 08:32:40;;;;;;;8.20;4.60;;;;;;;;;;8144750;28;20377;-71
2021/09/08 08:36:46;;;;;;;10.55;5.00;;;;;;;;;;8161864;28;20495;-72
2021/09/08 08:40:51;;;;;;;9.82;4.55;;;;;;;;;;8160189;28;20465;-73
2021/09/08 08:44:56;;;;;;;8.20;4.63;;;;;;;;;;8161380;28;20437;-72
2021/09/08 08:49:02;;;;;;;7.03;4.15;;;;;;;;;;8161714;28;20324;-72
2021/09/08 08:53:07;;;;;;;6.20;4.15;;;;;;;;;;8143402;28;20373;-72
2021/09/08 08:57:15;;;;;;;7.00;3.67;;;;;;;;;;8160180;28;20373;-72
2021/09/08 09:01:27;;;;;;;6.55;4.18;;;;;;;;;;8143004;28;20392;-73
2021/09/08 09:05:35;;;;;;;8.82;3.92;;;;;;;;;;8160903;28;20058;-72
2021/09/08 09:09:42;;;;;;;7.30;4.13;;;;;;;;;;8141498;28;20454;-72
2021/09/08 09:13:48;;;;;;;5.35;3.83;;;;;;;;;;8159362;28;20054;-72
2021/09/08 09:17:54;;;;;;;5.73;3.90;;;;;;;;;;8129723;28;20405;-73
2021/09/08 09:21:59;;;;;;;4.63;3.35;;;;;;;;;;8145321;28;20357;-72
2021/09/08 09:26:06;;;;;;;7.00;3.30;;;;;;;;;;8160059;28;20343;-72
2021/09/08 09:30:15;;;;;;;6.82;3.95;;;;;;;;;;8128593;28;20378;-72
2021/09/08 09:34:22;;;;;;;5.82;3.58;;;;;;;;;;8146402;28;20480;-73
2021/09/08 09:38:27;;;;;;;6.53;3.53;;;;;;;;;;8162979;28;20072;-72
2021/09/08 09:42:33;;;;;;;4.53;3.15;;;;;;;;;;8146285;28;20377;-72
2021/09/08 09:46:56;;;;;;;6.68;3.45;;;;;;;;;;8150186;28;20488;-72
2021/09/08 09:51:09;;;;;;;6.70;4.07;;;;;;;;;;8169044;28;20069;-73
2021/09/08 09:55:14;;;;;;;7.80;3.47;;;;;;;;;;8152240;28;20046;-72
2021/09/08 09:59:20;;;;;;;7.68;3.95;;;;;;;;;;8169145;28;20046;-72
2021/09/08 10:03:26;;;;;;;4.53;3.03;;;;;;;;;;8152782;28;20481;-72
2021/09/08 10:07:31;;;;;;;6.57;3.53;;;;;;;;;;8168835;28;20054;-72
2021/09/08 10:11:44;;;;;;;6.03;3.45;;;;;;;;;;8167293;28;20474;-72
2021/09/08 10:15:53;;;;;;;4.72;3.42;;;;;;;;;;8152654;28;20513;-72
2021/09/08 10:20:07;;;;;;;8.70;3.58;;;;;;;;;;8134800;28;20402;-72
2021/09/08 10:24:13;;;;;;;10.57;3.35;;;;;;;;;;8152213;28;20042;-72
2021/09/08 10:28:20;;;;;;;6.88;3.47;;;;;;;;;;8150139;28;20381;-74
2021/09/08 10:32:26;;;;;;;6.68;3.58;;;;;;;;;;8166437;28;20346;-72
2021/09/08 10:36:34;;;;;;;13.57;3.30;;;;;;;;;;8150727;28;20541;-72
2021/09/08 10:40:40;;;;;;;4.85;3.20;;;;;;;;;;8152763;28;20729;-72
2021/09/08 10:44:52;;;;;;;6.40;3.50;;;;;;;;;;8119921;28;20385;-71
2021/09/08 10:48:57;;;;;;;9.18;3.67;;;;;;;;;;8151390;28;20034;-73
2021/09/08 10:53:23;;;;;;;5.47;3.05;;;;;;;;;;8149648;28;20074;-72
2021/09/08 10:57:43;;;;;;;7.22;3.58;;;;;;;;;;8166034;28;20051;-73
2021/09/08 11:01:53;;;;;;;8.70;3.78;;;;;;;;;;8166467;28;20569;-72
2021/09/08 11:06:00;;;;;;;6.20;3.92;;;;;;;;;;8148034;28;20046;-72
2021/09/08 11:10:08;;;;;;;5.18;3.72;;;;;;;;;;8131434;28;20556;-72
2021/09/08 11:14:14;;;;;;;4.53;3.13;;;;;;;;;;8164735;28;20357;-72
2021/09/08 11:18:19;;;;;;;7.05;3.67;;;;;;;;;;8162528;28;20358;-72
2021/09/08 11:22:24;;;;;;;6.82;3.65;;;;;;;;;;8161013;28;20417;-72
2021/09/08 11:26:35;;;;;;;5.57;3.70;;;;;;;;;;8145428;28;20487;-72
2021/09/08 11:30:42;;;;;;;5.25;3.63;;;;;;;;;;8161963;28;20416;-73
2021/09/08 11:34:48;;;;;;;6.03;4.03;;;;;;;;;;8129480;28;20474;-72
2021/09/08 11:38:57;;;;;;;6.32;3.67;;;;;;;;;;8162219;28;20330;-72
2021/09/08 11:43:02;;;;;;;4.68;3.47;;;;;;;;;;8163063;28;20481;-72
2021/09/08 11:47:18;;;;;;;7.38;4.45;;;;;;;;;;8146476;28;20480;-72
2021/09/08 11:51:26;;;;;;;6.90;4.13;;;;;;;;;;8146482;28;20370;-72
2021/09/08 11:55:38;;;;;;;7.18;4.30;;;;;;;;;;8162616;28;20377;-72
2021/09/08 11:59:43;;;;;;;7.07;3.67;;;;;;;;;;8161204;28;20365;-72
2021/09/08 12:03:56;;;;;;;6.20;3.90;;;;;;;;;;8159777;28;20466;-72
2021/09/08 12:08:02;;;;;;;7.40;4.40;;;;;;;;;;8128489;28;20417;-72
2021/09/08 12:12:09;;;;;;;6.68;3.67;;;;;;;;;;8129272;28;20366;-72
2021/09/08 12:16:15;;;;;;;8.45;3.58;;;;;;;;;;8130467;28;20069;-72
2021/09/08 12:20:23;;;;;;;7.45;3.65;;;;;;;;;;8128807;28;20473;-73
2021/09/08 12:24:33;;;;;;;7.82;3.75;;;;;;;;;;8128721;28;20466;-72
2021/09/08 12:28:59;;;;;;;7.85;3.40;;;;;;;;;;8127133;28;20462;-72
2021/09/08 12:33:07;;;;;;;5.00;3.35;;;;;;;;;;8127197;28;20072;-72
2021/09/08 12:37:14;;;;;;;5.70;3.60;;;;;;;;;;8127461;28;20051;-72
2021/09/08 12:41:27;;;;;;;17.45;6.25;;;;;;;;;;8128943;28;20376;-72
2021/09/08 12:45:32;;;;;;;6.28;3.33;;;;;;;;;;8128971;28;20386;-71
2021/09/08 12:49:38;;;;;;;5.93;3.75;;;;;;;;;;8131995;28;20543;-71
2021/09/08 12:53:43;;;;;;;13.82;7.43;;;;;;;;;;8127329;28;20466;-72
2021/09/08 12:57:54;;;;;;;22.67;9.67;;;;;;;;;;8143336;28;20419;-72
2021/09/08 13:01:59;;;;;;;76.60;31.13;;;;;;;;;;8128082;28;20378;-72
2021/09/08 13:06:06;;;;;;;14.15;8.43;;;;;;;;;;8130079;28;20513;-72
2021/09/08 13:10:11;;;;;;;22.05;11.68;;;;;;;;;;8142346;28;20488;-72
2021/09/08 13:14:17;;;;;;;5.22;3.30;;;;;;;;;;8166059;28;20346;-72
2021/09/08 13:18:22;;;;;;;5.63;3.03;;;;;;;;;;8144680;28;20385;-72
2021/09/08 13:22:27;;;;;;;5.60;3.22;;;;;;;;;;8166281;28;20358;-72
2021/09/08 13:26:35;;;;;;;9.88;4.22;;;;;;;;;;8152176;28;20462;-72
2021/09/08 13:30:40;;;;;;;6.20;3.88;;;;;;;;;;8152949;28;20501;-72
2021/09/08 13:34:45;;;;;;;8.50;3.75;;;;;;;;;;8167671;28;20473;-72
2021/09/08 13:38:51;;;;;;;8.40;3.60;;;;;;;;;;8168112;28;20464;-72
2021/09/08 13:42:57;;;;;;;7.43;3.58;;;;;;;;;;8168413;28;20335;-72
2021/09/08 13:47:04;;;;;;;6.18;3.10;;;;;;;;;;8169688;28;20362;-71
2021/09/08 13:51:09;;;;;;;5.63;3.75;;;;;;;;;;8167344;28;20488;-72
2021/09/08 13:55:15;;;;;;;7.43;2.97;;;;;;;;;;8168454;28;20433;-71
2021/09/08 13:59:29;;;;;;;6.40;3.33;;;;;;;;;;8167885;28;20356;-72
2021/09/08 14:03:34;;;;;;;5.78;3.30;;;;;;;;;;8169789;28;20450;-72
2021/09/08 14:07:40;;;;;;;7.05;4.05;;;;;;;;;;8169766;28;20054;-72
2021/09/08 14:11:45;;;;;;;8.32;3.85;;;;;;;;;;8132641;28;20381;-71
2021/09/08 14:15:51;;;;;;;5.88;3.45;;;;;;;;;;8134137;28;20058;-71
2021/09/08 14:19:57;;;;;;;23.75;9.18;;;;;;;;;;8133353;28;20061;-71
2021/09/08 14:24:03;;;;;;;10.77;5.60;;;;;;;;;;8148009;28;20426;-72
2021/09/08 14:28:08;;;;;;;5.22;3.38;;;;;;;;;;8150165;28;20482;-72
2021/09/08 14:32:14;;;;;;;6.28;3.40;;;;;;;;;;8136463;28;20073;-72
2021/09/08 14:36:19;;;;;;;6.10;3.60;;;;;;;;;;8136754;28;20374;-72
2021/09/08 14:40:24;;;;;;;6.47;3.80;;;;;;;;;;8136200;28;20498;-72
2021/09/08 14:44:29;;;;;;;9.68;4.15;;;;;;;;;;8134121;28;20355;-72
2021/09/08 14:48:34;;;;;;;7.53;3.50;;;;;;;;;;8130635;28;20039;-72
2021/09/08 14:52:40;;;;;;;6.10;3.97;;;;;;;;;;8130977;28;20494;-72
2021/09/08 14:56:45;;;;;;;6.13;3.53;;;;;;;;;;8131655;28;20057;-71
2021/09/08 15:00:50;;;;;;;5.97;3.35;;;;;;;;;;8134117;28;20039;-73
2021/09/08 15:04:56;;;;;;;6.53;3.40;;;;;;;;;;8130282;28;20077;-72
2021/09/08 15:09:03;;;;;;;5.47;3.60;;;;;;;;;;8131373;28;20350;-72
2021/09/08 15:13:08;;;;;;;7.10;2.90;;;;;;;;;;8165129;28;20069;-71
2021/09/08 15:17:13;;;;;;;6.35;3.08;;;;;;;;;;8129982;28;20442;-72
2021/09/08 15:21:19;;;;;;;7.18;3.22;;;;;;;;;;8144720;28;20512;-72
2021/09/08 15:25:24;;;;;;;7.45;3.60;;;;;;;;;;8163985;28;20472;-71
2021/09/08 15:29:30;;;;;;;6.63;3.45;;;;;;;;;;8164421;28;20357;-72
2021/09/08 15:33:35;;;;;;;6.68;3.55;;;;;;;;;;8159144;28;20404;-72
2021/09/08 15:37:40;;;;;;;7.97;2.97;;;;;;;;;;8183027;28;20045;-72
2021/09/08 15:41:45;;;;;;;10.80;5.70;;;;;;;;;;8184099;28;20475;-72
2021/09/08 15:45:48;;;;;;;9.95;4.22;;;;;;;;;;8182783;28;20484;-73
2021/09/08 15:49:54;;;;;;;8.65;4.57;;;;;;;;;;8209446;28;20037;-72
2021/09/08 15:54:16;;;;;;;7.18;3.90;;;;;;;;;;8197667;28;20360;-71
2021/09/08 15:58:21;;;;;;;6.95;3.97;;;;;;;;;;8208403;28;20095;-72
2021/09/08 16:02:26;;;;;;;6.38;3.70;;;;;;;;;;8201916;28;20472;-71
2021/09/08 16:06:30;;;;;;;7.93;4.25;;;;;;;;;;8205782;28;20494;-71
2021/09/08 16:10:37;;;;;;;8.15;4.05;;;;;;;;;;8192699;28;20457;-72
2021/09/08 16:14:41;;;;;;;23.23;8.05;;;;;;;;;;8190415;28;20376;-72
2021/09/08 16:18:51;;;;;;;26.05;9.02;;;;;;;;;;8212420;28;20353;-71
2021/09/08 16:22:55;;;;;;;18.25;6.72;;;;;;;;;;8195237;28;20457;-71
2021/09/08 16:26:59;;;;;;;21.75;6.68;;;;;;;;;;8201353;28;20348;-71
2021/09/08 16:31:02;;;;;;;16.08;6.07;;;;;;;;;;8239373;28;20379;-71
2021/09/08 16:35:08;;;;;;;13.18;5.82;;;;;;;;;;8232345;28;20501;-71
2021/09/08 16:39:12;;;;;;;7.90;4.70;;;;;;;;;;8231194;28;20395;-71
2021/09/08 16:43:16;;;;;;;8.98;4.90;;;;;;;;;;8219567;28;20460;-72
2021/09/08 16:47:21;;;;;;;9.13;5.82;;;;;;;;;;8221840;28;20327;-71
2021/09/08 16:51:26;;;;;;;11.38;5.07;;;;;;;;;;8222344;28;20143;-71
2021/09/08 16:55:34;;;;;;;7.88;4.93;;;;;;;;;;8239516;28;20384;-72
2021/09/08 16:59:39;;;;;;;10.25;4.70;;;;;;;;;;8230623;28;20395;-71
2021/09/08 17:03:44;;;;;;;12.05;5.30;;;;;;;;;;8246285;28;20048;-71
2021/09/08 17:07:48;;;;;;;14.45;5.43;;;;;;;;;;8261903;28;20388;-71
2021/09/08 17:11:54;;;;;;;12.88;4.65;;;;;;;;;;8262549;28;20368;-71
2021/09/08 17:15:58;;;;;;;14.73;5.13;;;;;;;;;;8222990;28;20064;-71
2021/09/08 17:20:05;;;;;;;9.02;4.22;;;;;;;;;;8203574;28;20361;-71
2021/09/08 17:24:09;;;;;;;;;;;;;;;;;;8198676;28;20046;-70
2021/09/08 17:28:16;;;;;;;;;;;;;;;;;;8204643;28;20326;-71
2021/09/08 17:32:21;;;;;;;;;;;;;;;;;;8239529;28;20282;-71
2021/09/08 17:36:28;;;;;;;;;;;;;;;;;;8262705;28;20354;-71
2021/09/08 17:40:32;;;;;;;;;;;;;;;;;;8252164;28;20290;-71
2021/09/08 17:44:35;;;;;;;;;;;;;;;;;;8179392;28;20264;-71
2021/09/08 17:48:41;;;;;;;;;;;;;;;;;;8200307;28;20362;-71
2021/09/08 17:52:49;;;;;;;;;;;;;;;;;;8201245;28;20332;-70
2021/09/08 17:56:54;;;;;;;;;;;;;;;;;;8180408;28;20352;-71
2021/09/08 18:01:01;;;;;;;;;;;;;;;;;;8165408;28;20230;-70
2021/09/08 18:05:09;;;;;;;;;;;;;;;;;;8180024;28;20241;-70
2021/09/08 18:09:14;;;;;;;;;;;;;;;;;;8178982;28;19943;-71
2021/09/08 18:13:19;;;;;;;;;;;;;;;;;;8180729;28;20250;-70
2021/09/08 18:17:25;;;;;;;;;;;;;;;;;;8197578;28;20360;-71
2021/09/08 18:21:32;;;;;;;;;;;;;;;;;;8179733;28;20371;-71
2021/09/08 18:25:37;;;;;;;;;;;;;;;;;;8197593;28;20242;-71
2021/09/08 18:29:43;;;;;;;;;;;;;;;;;;8181354;28;20336;-71
2021/09/08 18:33:49;;;;;;;;;;;;;;;;;;8196999;28;19921;-71
2021/09/08 18:37:54;;;;;;;;;;;;;;;;;;8179130;28;20236;-71
2021/09/08 18:41:59;;;;;;;;;;;;;;;;;;8164500;28;19926;-70
2021/09/08 18:46:05;;;;;;;;;;;;;;;;;;8197627;28;19921;-71
2021/09/08 18:50:11;;;;;;;;;;;;;;;;;;8164431;28;20249;-71
2021/09/08 18:54:16;;;;;;;;;;;;;;;;;;8195091;28;20352;-71
2021/09/08 18:58:21;;;;;;;;;;;;;;;;;;8196517;28;20264;-73
2021/09/08 19:02:26;;;;;;;;;;;;;;;;;;8196454;28;19937;-71
2021/09/08 19:06:32;;;;;;;;;;;;;;;;;;8179929;28;20357;-71
2021/09/08 19:10:38;;;;;;;;;;;;;;;;;;8162094;28;20366;-72
2021/09/08 19:14:45;;;;;;;;;;;;;;;;;;8179252;28;20259;-72
2021/09/08 19:18:50;;;;;;;;;;;;;;;;;;8179373;28;19928;-71
2021/09/08 19:22:55;;;;;;;;;;;;;;;;;;8117463;28;20357;-71
2021/09/08 19:27:00;;;;;;;;;;;;;;;;;;8188739;28;20447;-71
2021/09/08 19:31:05;;;;;;;;;;;;;;;;;;8199263;28;20370;-71
2021/09/08 19:35:11;;;;;;;;;;;;;;;;;;8077707;28;20315;-71
2021/09/08 19:39:17;;;;;;;;;;;;;;;;;;8188831;28;20341;-71
2021/09/08 19:43:22;;;;;;;;;;;;;;;;;;8162180;28;20225;-72
2021/09/08 19:47:27;;;;;;;;;;;;;;;;;;8178266;28;20359;-72
2021/09/08 19:51:32;;;;;;;;;;;;;;;;;;8178498;28;20299;-71
2021/09/08 19:55:37;;;;;;;;;;;;;;;;;;8195767;28;19948;-71
2021/09/08 19:59:42;;;;;;;;;;;;;;;;;;8161306;28;19926;-71
2021/09/08 20:03:48;;;;;;;;;;;;;;;;;;8194931;28;19921;-72
2021/09/08 20:07:53;;;;;;;;;;;;;;;;;;8162186;28;20340;-71
2021/09/08 20:11:58;;;;;;;;;;;;;;;;;;8193551;28;20363;-71
2021/09/08 20:16:03;;;;;;;;;;;;;;;;;;8176982;28;19925;-72
2021/09/08 20:20:10;;;;;;;;;;;;;;;;;;8177395;28;20288;-71
2021/09/08 20:24:15;;;;;;;;;;;;;;;;;;8176390;28;19999;-72
2021/09/08 20:28:20;;;;;;;;;;;;;;;;;;8176404;28;20271;-72
2021/09/08 20:32:25;;;;;;;;;;;;;;;;;;8175567;28;19944;-71
2021/09/08 20:36:30;;;;;;;;;;;;;;;;;;8177250;28;20356;-72
2021/09/08 20:40:35;;;;;;;;;;;;;;;;;;8194337;28;20382;-71
2021/09/08 20:44:40;;;;;;;;;;;;;;;;;;8191059;28;20249;-72
2021/09/08 20:48:45;;;;;;;;;;;;;;;;;;8176616;28;20277;-71
2021/09/08 20:52:49;;;;;;;;;;;;;;;;;;8193187;28;20430;-71
2021/09/08 20:56:54;;;;;;;;;;;;;;;;;;8191430;28;20337;-71
2021/09/08 21:01:00;;;;;;;;;;;;;;;;;;8193332;28;20280;-71
2021/09/08 21:05:06;;;;;;;;;;;;;;;;;;8176417;28;19921;-71
2021/09/08 21:09:11;;;;;;;;;;;;;;;;;;8174832;28;19921;-71
2021/09/08 21:13:15;;;;;;;;;;;;;;;;;;8193759;28;20317;-71
2021/09/08 21:17:20;;;;;;;;;;;;;;;;;;8176295;28;20221;-72
2021/09/08 21:21:25;;;;;;;;;;;;;;;;;;8191293;28;20316;-71
2021/09/08 21:25:30;;;;;;;;;;;;;;;;;;8175631;28;19921;-71
2021/09/08 21:29:35;;;;;;;;;;;;;;;;;;8192600;28;19925;-72
2021/09/08 21:33:39;;;;;;;;;;;;;;;;;;8175384;28;20264;-72
2021/09/08 21:37:45;;;;;;;;;;;;;;;;;;8192019;28;19925;-71
2021/09/08 21:41:51;;;;;;;;;;;;;;;;;;8177440;28;20276;-71
2021/09/08 21:45:55;;;;;;;;;;;;;;;;;;8198809;28;20304;-72
2021/09/08 21:50:01;;;;;;;;;;;;;;;;;;8198586;28;19921;-71
2021/09/08 21:54:06;;;;;;;;;;;;;;;;;;8198058;28;20273;-72
2021/09/08 21:58:12;;;;;;;;;;;;;;;;;;8198531;28;20283;-72
2021/09/08 22:02:17;;;;;;;;;;;;;;;;;;8180559;28;19943;-72
2021/09/08 22:06:23;;;;;;;;;;;;;;;;;;8198000;28;20237;-72
2021/09/08 22:10:31;;;;;;;;;;;;;;;;;;8196978;28;20333;-71
2021/09/08 22:14:36;;;;;;;;;;;;;;;;;;8163899;28;20250;-72
2021/09/08 22:18:41;;;;;;;;;;;;;;;;;;8180298;28;20260;-72
2021/09/08 22:22:46;;;;;;;;;;;;;;;;;;8180054;28;19944;-72
2021/09/08 22:26:51;;;;;;;;;;;;;;;;;;8180636;28;20341;-72
2021/09/08 22:30:56;;;;;;;;;;;;;;;;;;8196680;28;20340;-72
2021/09/08 22:35:01;;;;;;;;;;;;;;;;;;8196146;28;20276;-72
2021/09/08 22:39:06;;;;;;;;;;;;;;;;;;8194828;28;20352;-72
2021/09/08 22:43:11;;;;;;;;;;;;;;;;;;8178822;28;19922;-72
2021/09/08 22:47:17;;;;;;;;;;;;;;;;;;8178595;28;20357;-72
2021/09/08 22:51:22;;;;;;;;;;;;;;;;;;8179212;28;20359;-72
2021/09/08 22:55:26;;;;;;;;;;;;;;;;;;8179720;28;19932;-71
2021/09/08 22:59:34;;;;;;;;;;;;;;;;;;8177884;28;20256;-72
2021/09/08 23:03:40;;;;;;;;;;;;;;;;;;8163022;28;20363;-72
2021/09/08 23:07:45;;;;;;;;;;;;;;;;;;8178580;28;20295;-72
2021/09/08 23:11:51;;;;;;;;;;;;;;;;;;8161577;28;20353;-71
2021/09/08 23:15:56;;;;;;;;;;;;;;;;;;8161564;28;20253;-72
2021/09/08 23:20:02;;;;;;;;;;;;;;;;;;8146093;28;20337;-74
2021/09/08 23:24:07;;;;;;;;;;;;;;;;;;8164089;28;20264;-71
2021/09/08 23:28:13;;;;;;;;;;;;;;;;;;8163237;28;20240;-72
2021/09/08 23:32:19;;;;;;;;;;;;;;;;;;8164647;28;20245;-72
2021/09/08 23:36:24;;;;;;;;;;;;;;;;;;8164355;28;19948;-72
2021/09/08 23:40:31;;;;;;;;;;;;;;;;;;8145276;28;20363;-72
2021/09/08 23:44:36;;;;;;;;;;;;;;;;;;8144705;28;20345;-72
2021/09/08 23:48:41;;;;;;;;;;;;;;;;;;8160810;28;20271;-72
2021/09/08 23:52:46;;;;;;;;;;;;;;;;;;8161881;28;20248;-72
2021/09/08 23:56:52;;;;;;;;;;;;;;;;;;8161966;28;20289;-72
